createdAt,value
2023-01-17T00:00:09.856Z,96487.28
2023-01-17T00:00:41.369Z,96489.59
2023-01-17T00:01:12.881Z,96493.88
2023-01-17T00:01:44.274Z,96495.44
2023-01-17T00:02:15.755Z,96491.88
2023-01-17T00:02:47.239Z,96493.44
2023-01-17T00:03:18.645Z,96496.13
2023-01-17T00:03:50.150Z,96492.25
2023-01-17T00:04:21.821Z,96499.31
2023-01-17T00:04:53.331Z,96501.66
2023-01-17T00:05:24.728Z,96502.06
2023-01-17T00:05:56.161Z,96505.59
2023-01-17T00:06:27.604Z,96498.94
2023-01-17T00:06:59.027Z,96497.78
2023-01-17T00:07:30.489Z,96490.75
2023-01-17T00:08:01.910Z,96499.31
2023-01-17T00:08:33.333Z,96501.25
2023-01-17T00:09:04.752Z,96495.03
2023-01-17T00:09:36.203Z,96502.41
2023-01-17T00:10:07.707Z,96495.44
2023-01-17T00:10:39.170Z,96498.16
2023-01-17T00:11:10.720Z,96504.75
2023-01-17T00:11:42.153Z,96500.88
2023-01-17T00:12:13.601Z,96498.16
2023-01-17T00:12:44.990Z,96504.38
2023-01-17T00:13:16.494Z,96503.59
2023-01-17T00:13:48.015Z,96511.78
2023-01-17T00:14:19.448Z,96503.19
2023-01-17T00:14:50.881Z,96501.63
2023-01-17T00:15:22.391Z,96500.47
2023-01-17T00:15:53.858Z,96504.38
2023-01-17T00:16:25.296Z,96508.25
2023-01-17T00:16:56.739Z,96502.03
2023-01-17T00:17:28.141Z,96500.47
2023-01-17T00:17:59.552Z,96499.31
2023-01-17T00:18:30.962Z,96509.06
2023-01-17T00:19:02.359Z,96501.66
2023-01-17T00:19:33.768Z,96507.09
2023-01-17T00:20:05.203Z,96508.63
2023-01-17T00:20:36.686Z,96508.25
2023-01-17T00:21:08.173Z,96510.22
2023-01-17T00:21:39.615Z,96509.78
2023-01-17T00:22:11.111Z,96508.63
2023-01-17T00:22:42.550Z,96510.22
2023-01-17T00:23:14.014Z,96506.31
2023-01-17T00:23:45.403Z,96510.63
2023-01-17T00:24:16.793Z,96514.13
2023-01-17T00:24:48.204Z,96516.06
2023-01-17T00:25:19.687Z,96517.63
2023-01-17T00:25:51.183Z,96508.31
2023-01-17T00:26:22.599Z,96507.91
2023-01-17T00:26:53.996Z,96516.06
2023-01-17T00:27:25.460Z,96512.94
2023-01-17T00:27:56.854Z,96514.13
2023-01-17T00:28:28.277Z,96516.47
2023-01-17T00:28:59.699Z,96518.03
2023-01-17T00:29:31.159Z,96514.91
2023-01-17T00:30:02.624Z,96526.97
2023-01-17T00:30:34.062Z,96523.47
2023-01-17T00:31:05.644Z,96518.41
2023-01-17T00:31:37.165Z,96524.66
2023-01-17T00:32:08.661Z,96515.31
2023-01-17T00:32:40.056Z,96513.34
2023-01-17T00:33:11.443Z,96518.38
2023-01-17T00:33:42.862Z,96524.25
2023-01-17T00:34:14.340Z,96523.47
2023-01-17T00:34:45.721Z,96525.41
2023-01-17T00:35:17.122Z,96521.09
2023-01-17T00:35:48.511Z,96528.91
2023-01-17T00:36:20.004Z,96522.66
2023-01-17T00:36:51.427Z,96519.56
2023-01-17T00:37:22.846Z,96525.81
2023-01-17T00:37:54.330Z,96520.38
2023-01-17T00:38:25.738Z,96530.84
2023-01-17T00:38:57.171Z,96533.56
2023-01-17T00:39:28.606Z,96524.25
2023-01-17T00:40:00.012Z,96532.03
2023-01-17T00:40:31.458Z,96528.53
2023-01-17T00:41:02.861Z,96533.56
2023-01-17T00:41:34.332Z,96531.59
2023-01-17T00:42:05.756Z,96529.59
2023-01-17T00:42:37.160Z,96530.41
2023-01-17T00:43:08.771Z,96527.72
2023-01-17T00:43:40.181Z,96523.41
2023-01-17T00:44:11.584Z,96530.44
2023-01-17T00:44:43.011Z,96531.59
2023-01-17T00:45:14.434Z,96530.03
2023-01-17T00:45:45.814Z,96532.38
2023-01-17T00:46:17.272Z,96533.56
2023-01-17T00:46:48.867Z,96536.28
2023-01-17T00:47:20.343Z,96532.81
2023-01-17T00:47:53.147Z,96536.75
2023-01-17T00:48:24.634Z,96536.75
2023-01-17T00:48:56.070Z,96540.63
2023-01-17T00:49:27.446Z,96538.66
2023-01-17T00:49:58.874Z,96532.81
2023-01-17T00:50:30.301Z,96538.66
2023-01-17T00:51:01.722Z,96539.06
2023-01-17T00:51:33.136Z,96546.81
2023-01-17T00:52:04.595Z,96539.03
2023-01-17T00:52:36.042Z,96539.81
2023-01-17T00:53:07.437Z,96532.78
2023-01-17T00:53:38.888Z,96539.03
2023-01-17T00:54:10.242Z,96542.91
2023-01-17T00:54:41.716Z,96541.75
2023-01-17T00:55:13.201Z,96541.00
2023-01-17T00:55:44.618Z,96542.16
2023-01-17T00:56:16.058Z,96546.09
2023-01-17T00:56:47.419Z,96537.50
2023-01-17T00:57:18.813Z,96550.34
2023-01-17T00:57:50.241Z,96547.59
2023-01-17T00:58:21.673Z,96544.09
2023-01-17T00:58:53.124Z,96539.81
2023-01-17T00:59:24.530Z,96549.91
2023-01-17T00:59:56.016Z,96539.44
2023-01-17T01:00:27.468Z,96544.88
2023-01-17T01:00:58.987Z,96539.84
2023-01-17T01:01:30.499Z,96544.13
2023-01-17T01:02:02.042Z,96548.38
2023-01-17T01:02:33.573Z,96549.97
2023-01-17T01:03:04.977Z,96548.03
2023-01-17T01:03:36.407Z,96543.72
2023-01-17T01:04:07.833Z,96548.38
2023-01-17T01:04:39.238Z,96542.94
2023-01-17T01:05:10.769Z,96557.34
2023-01-17T01:05:42.206Z,96551.50
2023-01-17T01:06:13.661Z,96549.91
2023-01-17T01:06:45.119Z,96544.09
2023-01-17T01:07:16.545Z,96561.22
2023-01-17T01:07:48.085Z,96566.31
2023-01-17T01:08:19.475Z,96553.47
2023-01-17T01:08:50.927Z,96563.22
2023-01-17T01:09:22.374Z,96552.28
2023-01-17T01:09:53.799Z,96557.72
2023-01-17T01:10:25.254Z,96551.50
2023-01-17T01:10:56.702Z,96567.06
2023-01-17T01:11:28.142Z,96557.72
2023-01-17T01:11:59.514Z,96552.28
2023-01-17T01:12:30.974Z,96559.28
2023-01-17T01:13:02.429Z,96560.06
2023-01-17T01:13:33.812Z,96559.28
2023-01-17T01:14:05.226Z,96558.50
2023-01-17T01:14:36.711Z,96564.75
2023-01-17T01:15:08.167Z,96558.13
2023-01-17T01:15:39.654Z,96568.66
2023-01-17T01:16:11.568Z,96565.16
2023-01-17T01:16:43.056Z,96563.59
2023-01-17T01:17:14.497Z,96576.41
2023-01-17T01:17:45.980Z,96570.97
2023-01-17T01:18:17.458Z,96573.69
2023-01-17T01:18:48.878Z,96574.84
2023-01-17T01:19:20.349Z,96576.00
2023-01-17T01:19:51.763Z,96576.41
2023-01-17T01:20:23.156Z,96574.84
2023-01-17T01:20:54.667Z,96558.50
2023-01-17T01:21:26.098Z,96574.47
2023-01-17T01:21:57.513Z,96566.31
2023-01-17T01:22:28.982Z,96578.38
2023-01-17T01:23:00.363Z,96570.97
2023-01-17T01:23:31.748Z,96574.91
2023-01-17T01:24:03.170Z,96574.47
2023-01-17T01:24:34.632Z,96567.09
2023-01-17T01:25:06.061Z,96577.22
2023-01-17T01:25:37.457Z,96581.88
2023-01-17T01:26:08.964Z,96580.31
2023-01-17T01:26:40.414Z,96577.22
2023-01-17T01:27:11.858Z,96579.94
2023-01-17T01:27:43.270Z,96581.88
2023-01-17T01:28:14.656Z,96588.88
2023-01-17T01:28:46.126Z,96587.31
2023-01-17T01:29:17.540Z,96589.63
2023-01-17T01:29:48.921Z,96589.22
2023-01-17T01:30:20.321Z,96592.72
2023-01-17T01:30:51.755Z,96592.34
2023-01-17T01:31:23.380Z,96590.41
2023-01-17T01:31:54.827Z,96589.63
2023-01-17T01:32:26.216Z,96588.47
2023-01-17T01:32:57.641Z,96585.75
2023-01-17T01:33:29.054Z,96590.41
2023-01-17T01:34:00.585Z,96593.13
2023-01-17T01:34:32.030Z,96596.66
2023-01-17T01:35:03.417Z,96595.09
2023-01-17T01:35:34.797Z,96595.09
2023-01-17T01:36:06.283Z,96591.19
2023-01-17T01:36:37.679Z,96593.50
2023-01-17T01:37:09.113Z,96598.97
2023-01-17T01:37:40.595Z,96596.22
2023-01-17T01:38:12.080Z,96600.53
2023-01-17T01:38:43.516Z,96593.56
2023-01-17T01:39:14.933Z,96595.88
2023-01-17T01:39:46.665Z,96597.44
2023-01-17T01:40:18.104Z,96603.66
2023-01-17T01:40:49.543Z,96603.28
2023-01-17T01:41:21.012Z,96601.72
2023-01-17T01:41:52.402Z,96600.94
2023-01-17T01:42:23.822Z,96592.78
2023-01-17T01:42:55.226Z,96605.25
2023-01-17T01:43:26.649Z,96613.41
2023-01-17T01:43:58.044Z,96606.75
2023-01-17T01:44:29.438Z,96611.06
2023-01-17T01:45:00.955Z,96613.78
2023-01-17T01:45:32.444Z,96603.66
2023-01-17T01:46:04.037Z,96609.91
2023-01-17T01:46:35.626Z,96609.91
2023-01-17T01:47:07.067Z,96611.47
2023-01-17T01:47:38.517Z,96606.75
2023-01-17T01:48:09.984Z,96613.38
2023-01-17T01:48:41.419Z,96616.88
2023-01-17T01:49:12.787Z,96620.38
2023-01-17T01:49:44.175Z,96613.00
2023-01-17T01:50:15.565Z,96614.16
2023-01-17T01:50:46.946Z,96622.75
2023-01-17T01:51:18.379Z,96617.66
2023-01-17T01:51:49.878Z,96625.06
2023-01-17T01:52:21.282Z,96619.19
2023-01-17T01:52:52.731Z,96632.81
2023-01-17T01:53:24.192Z,96622.31
2023-01-17T01:53:55.617Z,96629.31
2023-01-17T01:54:27.027Z,96632.41
2023-01-17T01:54:58.508Z,96632.41
2023-01-17T01:55:29.921Z,96631.59
2023-01-17T01:56:01.350Z,96628.50
2023-01-17T01:56:32.738Z,96638.25
2023-01-17T01:57:04.284Z,96632.44
2023-01-17T01:57:35.772Z,96632.44
2023-01-17T01:58:07.171Z,96638.69
2023-01-17T01:58:38.584Z,96639.81
2023-01-17T01:59:09.995Z,96628.94
2023-01-17T01:59:41.381Z,96639.03
2023-01-17T02:00:12.782Z,96634.44
2023-01-17T02:00:44.259Z,96639.09
2023-01-17T02:01:15.779Z,96638.69
2023-01-17T02:01:47.340Z,96641.41
2023-01-17T02:02:18.886Z,96638.69
2023-01-17T02:02:50.368Z,96647.63
2023-01-17T02:03:21.763Z,96641.41
2023-01-17T02:03:53.150Z,96647.22
2023-01-17T02:04:24.581Z,96655.38
2023-01-17T02:04:56.020Z,96650.00
2023-01-17T02:05:27.389Z,96661.25
2023-01-17T02:05:58.886Z,96654.59
2023-01-17T02:06:30.313Z,96659.31
2023-01-17T02:07:01.748Z,96661.63
2023-01-17T02:07:33.251Z,96660.84
2023-01-17T02:08:04.642Z,96663.56
2023-01-17T02:08:36.013Z,96658.91
2023-01-17T02:09:07.437Z,96667.50
2023-01-17T02:09:38.855Z,96672.94
2023-01-17T02:10:10.317Z,96673.72
2023-01-17T02:10:41.740Z,96673.72
2023-01-17T02:11:13.148Z,96665.56
2023-01-17T02:11:44.588Z,96671.38
2023-01-17T02:12:16.018Z,96671.00
2023-01-17T02:12:47.537Z,96676.81
2023-01-17T02:13:18.980Z,96675.28
2023-01-17T02:13:50.431Z,96682.69
2023-01-17T02:14:21.874Z,96678.38
2023-01-17T02:14:53.314Z,96673.72
2023-01-17T02:15:24.738Z,96681.47
2023-01-17T02:15:56.169Z,96683.84
2023-01-17T02:16:27.643Z,96684.25
2023-01-17T02:16:59.077Z,96683.84
2023-01-17T02:17:30.489Z,96683.47
2023-01-17T02:18:01.952Z,96688.13
2023-01-17T02:18:33.417Z,96687.72
2023-01-17T02:19:04.841Z,96697.03
2023-01-17T02:19:36.263Z,96697.84
2023-01-17T02:20:07.720Z,96695.91
2023-01-17T02:20:39.143Z,96693.16
2023-01-17T02:21:10.580Z,96701.34
2023-01-17T02:21:42.028Z,96695.09
2023-01-17T02:22:13.454Z,96702.91
2023-01-17T02:22:44.841Z,96701.34
2023-01-17T02:23:16.458Z,96695.91
2023-01-17T02:23:47.876Z,96694.31
2023-01-17T02:24:19.336Z,96702.91
2023-01-17T02:24:50.761Z,96707.22
2023-01-17T02:25:22.170Z,96699.41
2023-01-17T02:25:53.695Z,96700.59
2023-01-17T02:26:25.091Z,96704.13
2023-01-17T02:26:56.548Z,96701.75
2023-01-17T02:27:27.926Z,96700.97
2023-01-17T02:27:59.347Z,96702.53
2023-01-17T02:28:30.761Z,96708.78
2023-01-17T02:29:02.179Z,96707.22
2023-01-17T02:29:33.611Z,96714.22
2023-01-17T02:30:05.036Z,96711.88
2023-01-17T02:30:36.505Z,96711.88
2023-01-17T02:31:07.904Z,96711.09
2023-01-17T02:31:39.371Z,96713.44
2023-01-17T02:32:10.834Z,96709.50
2023-01-17T02:32:42.256Z,96720.84
2023-01-17T02:33:13.636Z,96724.34
2023-01-17T02:33:45.036Z,96716.53
2023-01-17T02:34:16.466Z,96716.16
2023-01-17T02:34:47.908Z,96715.81
2023-01-17T02:35:19.280Z,96717.38
2023-01-17T02:35:50.712Z,96732.94
2023-01-17T02:36:22.238Z,96723.97
2023-01-17T02:36:53.768Z,96722.03
2023-01-17T02:37:25.224Z,96730.56
2023-01-17T02:37:56.612Z,96733.31
2023-01-17T02:38:28.043Z,96727.06
2023-01-17T02:38:59.451Z,96739.91
2023-01-17T02:39:30.916Z,96740.31
2023-01-17T02:40:02.315Z,96734.47
2023-01-17T02:40:33.717Z,96737.97
2023-01-17T02:41:05.146Z,96734.47
2023-01-17T02:41:36.554Z,96729.78
2023-01-17T02:42:08.002Z,96738.34
2023-01-17T02:42:39.428Z,96737.19
2023-01-17T02:43:10.816Z,96742.22
2023-01-17T02:43:42.221Z,96735.97
2023-01-17T02:44:13.638Z,96738.34
2023-01-17T02:44:45.098Z,96732.88
2023-01-17T02:45:16.769Z,96741.06
2023-01-17T02:45:48.206Z,96742.63
2023-01-17T02:46:19.646Z,96744.56
2023-01-17T02:46:51.088Z,96746.13
2023-01-17T02:47:22.637Z,96751.59
2023-01-17T02:47:54.052Z,96746.13
2023-01-17T02:48:25.493Z,96745.34
2023-01-17T02:48:56.902Z,96741.09
2023-01-17T02:49:28.332Z,96745.41
2023-01-17T02:49:59.797Z,96749.69
2023-01-17T02:50:31.193Z,96753.16
2023-01-17T02:51:02.623Z,96744.19
2023-01-17T02:51:34.059Z,96755.09
2023-01-17T02:52:05.436Z,96753.53
2023-01-17T02:52:36.920Z,96751.97
2023-01-17T02:53:08.347Z,96753.91
2023-01-17T02:53:39.758Z,96754.69
2023-01-17T02:54:11.175Z,96753.91
2023-01-17T02:54:42.587Z,96742.63
2023-01-17T02:55:14.014Z,96751.59
2023-01-17T02:55:45.427Z,96751.53
2023-01-17T02:56:16.886Z,96751.97
2023-01-17T02:56:48.474Z,96747.28
2023-01-17T02:57:19.932Z,96752.38
2023-01-17T02:57:51.419Z,96756.69
2023-01-17T02:58:22.880Z,96755.88
2023-01-17T02:58:54.324Z,96741.84
2023-01-17T02:59:25.751Z,96746.94
2023-01-17T02:59:57.191Z,96745.78
2023-01-17T03:00:28.579Z,96748.13
2023-01-17T03:01:00.087Z,96747.72
2023-01-17T03:01:31.643Z,96748.88
2023-01-17T03:02:03.261Z,96752.38
2023-01-17T03:02:34.720Z,96749.28
2023-01-17T03:03:06.141Z,96760.97
2023-01-17T03:03:37.571Z,96746.19
2023-01-17T03:04:08.995Z,96748.91
2023-01-17T03:04:40.442Z,96752.78
2023-01-17T03:05:11.837Z,96749.28
2023-01-17T03:05:43.227Z,96752.38
2023-01-17T03:06:14.736Z,96757.41
2023-01-17T03:06:46.170Z,96764.78
2023-01-17T03:07:17.656Z,96753.09
2023-01-17T03:07:49.217Z,96758.56
2023-01-17T03:08:20.701Z,96755.84
2023-01-17T03:08:52.108Z,96759.34
2023-01-17T03:09:23.507Z,96761.28
2023-01-17T03:09:54.892Z,96758.56
2023-01-17T03:10:26.280Z,96756.25
2023-01-17T03:10:57.686Z,96765.22
2023-01-17T03:11:29.110Z,96754.69
2023-01-17T03:12:00.485Z,96766.00
2023-01-17T03:12:31.991Z,96765.59
2023-01-17T03:13:03.418Z,96770.25
2023-01-17T03:13:34.950Z,96762.84
2023-01-17T03:14:06.370Z,96760.91
2023-01-17T03:14:37.818Z,96763.63
2023-01-17T03:15:09.270Z,96776.47
2023-01-17T03:15:40.692Z,96771.03
2023-01-17T03:16:12.831Z,96766.72
2023-01-17T03:16:44.359Z,96773.75
2023-01-17T03:17:15.942Z,96777.63
2023-01-17T03:17:47.371Z,96774.91
2023-01-17T03:18:18.788Z,96786.22
2023-01-17T03:18:50.238Z,96785.81
2023-01-17T03:19:21.656Z,96798.28
2023-01-17T03:19:53.039Z,96793.25
2023-01-17T03:20:24.525Z,96794.81
2023-01-17T03:20:55.955Z,96799.06
2023-01-17T03:21:27.432Z,96799.84
2023-01-17T03:21:58.849Z,96798.69
2023-01-17T03:22:30.285Z,96806.88
2023-01-17T03:23:01.757Z,96809.22
2023-01-17T03:23:33.162Z,96811.53
2023-01-17T03:24:04.591Z,96804.16
2023-01-17T03:24:36.031Z,96808.44
2023-01-17T03:25:07.429Z,96821.66
2023-01-17T03:25:38.855Z,96809.97
2023-01-17T03:26:10.232Z,96807.66
2023-01-17T03:26:41.725Z,96823.22
2023-01-17T03:27:13.222Z,96818.13
2023-01-17T03:27:44.666Z,96825.53
2023-01-17T03:28:16.084Z,96817.72
2023-01-17T03:28:47.441Z,96814.94
2023-01-17T03:29:18.904Z,96819.22
2023-01-17T03:29:50.479Z,96814.56
2023-01-17T03:30:21.949Z,96815.34
2023-01-17T03:30:53.433Z,96821.59
2023-01-17T03:31:24.882Z,96811.13
2023-01-17T03:31:56.349Z,96813.06
2023-01-17T03:32:27.762Z,96813.41
2023-01-17T03:32:59.276Z,96812.25
2023-01-17T03:33:30.704Z,96810.28
2023-01-17T03:34:02.153Z,96823.09
2023-01-17T03:34:33.552Z,96815.34
2023-01-17T03:35:04.956Z,96819.28
2023-01-17T03:35:36.354Z,96815.78
2023-01-17T03:36:07.763Z,96829.78
2023-01-17T03:36:39.194Z,96823.16
2023-01-17T03:37:10.610Z,96819.28
2023-01-17T03:37:42.046Z,96827.03
2023-01-17T03:38:13.573Z,96827.81
2023-01-17T03:38:44.965Z,96829.78
2023-01-17T03:39:16.348Z,96826.69
2023-01-17T03:39:47.754Z,96836.44
2023-01-17T03:40:19.191Z,96831.41
2023-01-17T03:40:50.619Z,96831.75
2023-01-17T03:41:22.034Z,96836.78
2023-01-17T03:41:53.427Z,96841.81
2023-01-17T03:42:24.851Z,96847.69
2023-01-17T03:42:56.252Z,96849.25
2023-01-17T03:43:27.737Z,96853.56
2023-01-17T03:43:59.194Z,96848.91
2023-01-17T03:44:30.682Z,96841.09
2023-01-17T03:45:02.172Z,96850.03
2023-01-17T03:45:33.601Z,96852.78
2023-01-17T03:46:05.081Z,96843.81
2023-01-17T03:46:36.567Z,96844.19
2023-01-17T03:47:08.039Z,96845.31
2023-01-17T03:47:39.482Z,96858.22
2023-01-17T03:48:10.931Z,96862.88
2023-01-17T03:48:42.375Z,96854.72
2023-01-17T03:49:13.769Z,96859.78
2023-01-17T03:49:45.215Z,96858.22
2023-01-17T03:50:16.633Z,96857.44
2023-01-17T03:50:48.043Z,96855.13
2023-01-17T03:51:19.451Z,96859.78
2023-01-17T03:51:50.868Z,96852.78
2023-01-17T03:52:22.313Z,96872.63
2023-01-17T03:52:53.680Z,96866.41
2023-01-17T03:53:25.200Z,96861.72
2023-01-17T03:53:56.608Z,96859.00
2023-01-17T03:54:28.020Z,96864.47
2023-01-17T03:54:59.469Z,96863.25
2023-01-17T03:55:30.863Z,96857.38
2023-01-17T03:56:02.280Z,96867.50
2023-01-17T03:56:33.688Z,96858.94
2023-01-17T03:57:05.108Z,96865.97
2023-01-17T03:57:36.527Z,96859.75
2023-01-17T03:58:07.941Z,96867.91
2023-01-17T03:58:39.357Z,96865.97
2023-01-17T03:59:13.034Z,96862.47
2023-01-17T03:59:44.819Z,96866.34
2023-01-17T04:00:16.232Z,96874.50
2023-01-17T04:00:47.693Z,96861.31
2023-01-17T04:01:19.237Z,96873.00
2023-01-17T04:01:50.873Z,96873.78
2023-01-17T04:02:22.386Z,96869.13
2023-01-17T04:02:53.912Z,96874.22
2023-01-17T04:03:25.337Z,96874.22
2023-01-17T04:03:56.771Z,96880.81
2023-01-17T04:04:28.244Z,96877.72
2023-01-17T04:04:59.747Z,96880.03
2023-01-17T04:05:31.158Z,96878.88
2023-01-17T04:06:02.565Z,96881.59
2023-01-17T04:06:33.983Z,96878.50
2023-01-17T04:07:05.371Z,96885.09
2023-01-17T04:07:36.773Z,96879.66
2023-01-17T04:08:08.226Z,96879.66
2023-01-17T04:08:39.637Z,96881.59
2023-01-17T04:09:11.018Z,96888.19
2023-01-17T04:09:42.468Z,96885.91
2023-01-17T04:10:13.929Z,96879.66
2023-01-17T04:10:45.400Z,96884.31
2023-01-17T04:11:16.806Z,96879.66
2023-01-17T04:11:48.196Z,96880.44
2023-01-17T04:12:19.615Z,96884.75
2023-01-17T04:12:51.034Z,96888.63
2023-01-17T04:13:22.450Z,96889.41
2023-01-17T04:13:53.900Z,96892.13
2023-01-17T04:14:25.300Z,96884.75
2023-01-17T04:14:56.717Z,96889.78
2023-01-17T04:15:28.218Z,96887.47
2023-01-17T04:15:59.699Z,96891.34
2023-01-17T04:16:31.134Z,96896.44
2023-01-17T04:17:02.586Z,96890.19
2023-01-17T04:17:34.002Z,96882.38
2023-01-17T04:18:05.426Z,96885.91
2023-01-17T04:18:36.856Z,96883.16
2023-01-17T04:19:08.307Z,96883.16
2023-01-17T04:19:39.806Z,96882.38
2023-01-17T04:20:11.285Z,96876.16
2023-01-17T04:20:42.764Z,96879.28
2023-01-17T04:21:14.175Z,96874.25
2023-01-17T04:21:45.579Z,96882.81
2023-01-17T04:22:17.008Z,96876.50
2023-01-17T04:22:48.432Z,96881.16
2023-01-17T04:23:19.874Z,96882.38
2023-01-17T04:23:51.272Z,96885.53
2023-01-17T04:24:22.709Z,96880.09
2023-01-17T04:24:54.128Z,96884.75
2023-01-17T04:25:25.527Z,96881.22
2023-01-17T04:25:56.979Z,96887.03
2023-01-17T04:26:28.476Z,96889.41
2023-01-17T04:26:59.865Z,96888.63
2023-01-17T04:27:31.398Z,96888.63
2023-01-17T04:28:02.828Z,96891.72
2023-01-17T04:28:34.247Z,96891.72
2023-01-17T04:29:05.677Z,96885.47
2023-01-17T04:29:37.104Z,96892.91
2023-01-17T04:30:08.550Z,96885.53
2023-01-17T04:30:40.003Z,96888.63
2023-01-17T04:31:11.580Z,96887.47
2023-01-17T04:31:43.126Z,96889.41
2023-01-17T04:32:14.814Z,96892.50
2023-01-17T04:32:46.249Z,96892.50
2023-01-17T04:33:17.679Z,96895.22
2023-01-17T04:33:49.080Z,96903.41
2023-01-17T04:34:20.462Z,96891.72
2023-01-17T04:34:51.908Z,96901.47
2023-01-17T04:35:23.331Z,96890.56
2023-01-17T04:35:54.757Z,96897.16
2023-01-17T04:36:26.214Z,96897.94
2023-01-17T04:36:57.705Z,96898.31
2023-01-17T04:37:29.146Z,96901.81
2023-01-17T04:38:00.562Z,96899.09
2023-01-17T04:38:32.030Z,96897.94
2023-01-17T04:39:03.446Z,96903.03
2023-01-17T04:39:34.863Z,96899.16
2023-01-17T04:40:06.261Z,96901.53
2023-01-17T04:40:37.681Z,96905.34
2023-01-17T04:41:09.160Z,96895.59
2023-01-17T04:41:40.624Z,96901.81
2023-01-17T04:42:12.025Z,96906.91
2023-01-17T04:42:43.517Z,96897.16
2023-01-17T04:43:14.911Z,96899.94
2023-01-17T04:43:46.346Z,96904.25
2023-01-17T04:44:17.792Z,96899.94
2023-01-17T04:44:49.215Z,96906.19
2023-01-17T04:45:20.643Z,96898.78
2023-01-17T04:45:52.088Z,96902.66
2023-01-17T04:46:23.681Z,96901.81
2023-01-17T04:46:55.127Z,96911.56
2023-01-17T04:47:26.611Z,96899.09
2023-01-17T04:47:58.029Z,96906.13
2023-01-17T04:48:29.524Z,96903.75
2023-01-17T04:49:00.973Z,96908.84
2023-01-17T04:49:32.407Z,96905.75
2023-01-17T04:50:03.854Z,96909.28
2023-01-17T04:50:35.254Z,96901.09
2023-01-17T04:51:06.693Z,96907.34
2023-01-17T04:51:38.073Z,96911.22
2023-01-17T04:52:09.506Z,96908.84
2023-01-17T04:52:40.937Z,96920.16
2023-01-17T04:53:12.359Z,96917.44
2023-01-17T04:53:43.843Z,96911.22
2023-01-17T04:54:15.296Z,96914.72
2023-01-17T04:54:46.664Z,96915.50
2023-01-17T04:55:18.161Z,96918.22
2023-01-17T04:55:49.580Z,96918.22
2023-01-17T04:56:21.032Z,96921.31
2023-01-17T04:56:52.453Z,96923.69
2023-01-17T04:57:23.917Z,96920.97
2023-01-17T04:57:55.324Z,96918.22
2023-01-17T04:58:26.697Z,96924.03
2023-01-17T04:58:58.133Z,96922.47
2023-01-17T04:59:29.542Z,96922.09
2023-01-17T05:00:00.953Z,96923.69
2023-01-17T05:00:32.488Z,96919.75
2023-01-17T05:01:03.931Z,96924.03
2023-01-17T05:01:35.495Z,96933.44
2023-01-17T05:02:07.043Z,96933.00
2023-01-17T05:02:38.529Z,96931.06
2023-01-17T05:03:09.992Z,96931.06
2023-01-17T05:03:41.453Z,96927.91
2023-01-17T05:04:12.897Z,96928.34
2023-01-17T05:04:44.330Z,96926.41
2023-01-17T05:05:15.735Z,96928.34
2023-01-17T05:05:47.253Z,96934.94
2023-01-17T05:06:18.733Z,96927.56
2023-01-17T05:06:50.157Z,96928.34
2023-01-17T05:07:21.667Z,96932.22
2023-01-17T05:07:53.130Z,96922.84
2023-01-17T05:08:24.510Z,96934.09
2023-01-17T05:08:55.932Z,96938.41
2023-01-17T05:09:27.335Z,96932.94
2023-01-17T05:09:58.735Z,96939.19
2023-01-17T05:10:30.162Z,96938.47
2023-01-17T05:11:01.660Z,96945.06
2023-01-17T05:11:33.113Z,96936.53
2023-01-17T05:12:04.562Z,96933.38
2023-01-17T05:12:36.059Z,96939.25
2023-01-17T05:13:07.499Z,96944.69
2023-01-17T05:13:38.946Z,96939.59
2023-01-17T05:14:10.391Z,96944.25
2023-01-17T05:14:41.778Z,96945.84
2023-01-17T05:15:13.245Z,96943.91
2023-01-17T05:15:44.775Z,96949.34
2023-01-17T05:16:16.348Z,96938.47
2023-01-17T05:16:47.757Z,96941.19
2023-01-17T05:17:19.252Z,96941.19
2023-01-17T05:17:50.681Z,96944.69
2023-01-17T05:18:22.072Z,96945.06
2023-01-17T05:18:53.502Z,96942.75
2023-01-17T05:19:27.458Z,96950.16
2023-01-17T05:19:58.876Z,96952.88
2023-01-17T05:20:30.349Z,96949.34
2023-01-17T05:21:01.760Z,96952.50
2023-01-17T05:21:33.256Z,96949.41
2023-01-17T05:22:04.648Z,96949.00
2023-01-17T05:22:36.084Z,96949.00
2023-01-17T05:23:07.568Z,96954.44
2023-01-17T05:23:39.031Z,96958.75
2023-01-17T05:24:10.451Z,96950.94
2023-01-17T05:24:41.843Z,96955.59
2023-01-17T05:25:13.256Z,96959.09
2023-01-17T05:25:44.711Z,96957.16
2023-01-17T05:26:16.109Z,96957.91
2023-01-17T05:26:49.652Z,96957.53
2023-01-17T05:27:21.722Z,96954.03
2023-01-17T05:27:53.127Z,96955.16
2023-01-17T05:28:24.558Z,96954.38
2023-01-17T05:28:56.153Z,96962.97
2023-01-17T05:29:27.601Z,96952.44
2023-01-17T05:29:59.004Z,96960.63
2023-01-17T05:30:30.472Z,96960.97
2023-01-17T05:31:01.924Z,96952.44
2023-01-17T05:31:33.385Z,96957.09
2023-01-17T05:32:04.784Z,96957.09
2023-01-17T05:32:36.199Z,96961.78
2023-01-17T05:33:07.587Z,96959.81
2023-01-17T05:33:39.065Z,96957.09
2023-01-17T05:34:10.549Z,96952.81
2023-01-17T05:34:42.196Z,96952.44
2023-01-17T05:35:13.599Z,96962.56
2023-01-17T05:35:44.981Z,96965.28
2023-01-17T05:36:16.413Z,96959.47
2023-01-17T05:36:47.840Z,96961.41
2023-01-17T05:37:19.244Z,96961.84
2023-01-17T05:37:50.684Z,96961.03
2023-01-17T05:38:22.091Z,96962.63
2023-01-17T05:38:53.586Z,96967.28
2023-01-17T05:39:25.008Z,96968.06
2023-01-17T05:39:56.491Z,96970.78
2023-01-17T05:40:27.954Z,96965.34
2023-01-17T05:40:59.363Z,96966.56
2023-01-17T05:41:30.780Z,96970.78
2023-01-17T05:42:02.209Z,96968.84
2023-01-17T05:42:33.645Z,96975.03
2023-01-17T05:43:05.063Z,96972.25
2023-01-17T05:43:36.508Z,96978.91
2023-01-17T05:44:07.978Z,96965.28
2023-01-17T05:44:39.440Z,96973.03
2023-01-17T05:45:10.915Z,96968.72
2023-01-17T05:45:42.350Z,96969.88
2023-01-17T05:46:13.845Z,96972.25
2023-01-17T05:46:45.205Z,96978.13
2023-01-17T05:47:16.626Z,96971.09
2023-01-17T05:47:48.080Z,96975.38
2023-01-17T05:48:19.519Z,96973.38
2023-01-17T05:48:50.909Z,96976.53
2023-01-17T05:49:22.396Z,96968.66
2023-01-17T05:49:53.809Z,96966.78
2023-01-17T05:50:25.277Z,96971.81
2023-01-17T05:50:56.697Z,96977.97
2023-01-17T05:51:28.109Z,96974.53
2023-01-17T05:51:59.500Z,96969.88
2023-01-17T05:52:30.899Z,96969.88
2023-01-17T05:53:02.351Z,96972.59
2023-01-17T05:53:33.770Z,96975.75
2023-01-17T05:54:05.261Z,96974.97
2023-01-17T05:54:36.673Z,96967.16
2023-01-17T05:55:08.130Z,96972.66
2023-01-17T05:55:39.605Z,96977.31
2023-01-17T05:56:11.031Z,96979.25
2023-01-17T05:56:42.477Z,96978.91
2023-01-17T05:57:13.878Z,96973.44
2023-01-17T05:57:45.310Z,96982.06
2023-01-17T05:58:16.746Z,96982.41
2023-01-17T05:58:48.161Z,96981.63
2023-01-17T05:59:32.264Z,96986.28
2023-01-17T06:00:07.776Z,96984.34
2023-01-17T06:00:39.250Z,96993.75
2023-01-17T06:01:10.774Z,96983.19
2023-01-17T06:01:42.214Z,96984.00
2023-01-17T06:02:13.625Z,96989.44
2023-01-17T06:02:45.088Z,96985.13
2023-01-17T06:03:16.544Z,96991.03
2023-01-17T06:03:47.969Z,96990.66
2023-01-17T06:04:19.415Z,96992.16
2023-01-17T06:04:50.861Z,96995.69
2023-01-17T06:05:22.293Z,96994.53
2023-01-17T06:05:53.712Z,96994.88
2023-01-17T06:06:25.147Z,96992.16
2023-01-17T06:06:56.524Z,96992.16
2023-01-17T06:07:28.034Z,97000.28
2023-01-17T06:07:59.480Z,96993.69
2023-01-17T06:08:30.891Z,97002.22
2023-01-17T06:09:02.309Z,97006.09
2023-01-17T06:09:33.817Z,97006.09